KMWC/MWC METAR and TAF weather

Enter ICAO airport designator
Station Type Date Time Source
KMWC METAR 2022/12/08 12:35 UTC NOAA

KMWC 081235Z AUTO 00000KT 10SM OVC029 M01/M05 A3043 RMK AO2


Station Type Date Time Source
KMWC Decoded METAR 2022/12/08 12:35 UTC NOAA

Milwaukee / Timmerman, WI, United States (KMWC) 43-07N 088-02W
Dec 08, 2022 - 07:35 AM EST / 2022.12.08 1235 UTC
Wind: Calm:0
Visibility: 10 mile(s):0
Sky conditions: overcast
Temperature: 30 F (-1 C)
Dew Point: 23 F (-5 C)
Relative Humidity: 74%
Pressure (altimeter): 30.43 in. Hg (1030 hPa)
ob: KMWC 081235Z AUTO 00000KT 10SM OVC029 M01/M05 A3043 RMK AO2
cycle: 12

Station Type Date Time Source
KMWC TAF UTC NOAA

Error!

Example: see airport list